sensor_id;sensor_type;location;lat;lon;timestamp;P1;durP1;ratioP1;P2;durP2;ratioP2
74044;SDS011;62389;51.412;5.436;2023-04-28T00:00:23;11.30;;;6.00;;
74044;SDS011;62389;51.412;5.436;2023-04-28T00:02:49;11.82;;;6.65;;
74044;SDS011;62389;51.412;5.436;2023-04-28T00:05:14;14.43;;;6.50;;
74044;SDS011;62389;51.412;5.436;2023-04-28T00:07:40;14.95;;;6.43;;
74044;SDS011;62389;51.412;5.436;2023-04-28T00:10:05;12.35;;;6.70;;
74044;SDS011;62389;51.412;5.436;2023-04-28T00:12:31;11.90;;;6.38;;
74044;SDS011;62389;51.412;5.436;2023-04-28T00:14:56;12.90;;;6.43;;
74044;SDS011;62389;51.412;5.436;2023-04-28T00:17:22;14.57;;;6.85;;
74044;SDS011;62389;51.412;5.436;2023-04-28T00:19:47;13.68;;;6.45;;
74044;SDS011;62389;51.412;5.436;2023-04-28T00:22:13;13.93;;;6.53;;
74044;SDS011;62389;51.412;5.436;2023-04-28T00:24:39;14.60;;;6.32;;
74044;SDS011;62389;51.412;5.436;2023-04-28T00:27:05;11.32;;;5.80;;
74044;SDS011;62389;51.412;5.436;2023-04-28T00:29:31;12.90;;;6.18;;
74044;SDS011;62389;51.412;5.436;2023-04-28T00:31:56;11.55;;;6.20;;
74044;SDS011;62389;51.412;5.436;2023-04-28T00:34:22;11.80;;;6.00;;
74044;SDS011;62389;51.412;5.436;2023-04-28T00:36:47;11.18;;;6.07;;
74044;SDS011;62389;51.412;5.436;2023-04-28T00:39:12;15.70;;;7.20;;
74044;SDS011;62389;51.412;5.436;2023-04-28T00:41:38;12.10;;;6.75;;
74044;SDS011;62389;51.412;5.436;2023-04-28T00:44:04;15.32;;;7.70;;
74044;SDS011;62389;51.412;5.436;2023-04-28T00:46:29;13.95;;;6.75;;
74044;SDS011;62389;51.412;5.436;2023-04-28T00:48:58;12.98;;;6.18;;
74044;SDS011;62389;51.412;5.436;2023-04-28T00:51:23;12.30;;;6.22;;
74044;SDS011;62389;51.412;5.436;2023-04-28T00:53:49;13.65;;;6.88;;
74044;SDS011;62389;51.412;5.436;2023-04-28T00:56:15;12.88;;;6.85;;
74044;SDS011;62389;51.412;5.436;2023-04-28T00:58:41;14.48;;;6.20;;
74044;SDS011;62389;51.412;5.436;2023-04-28T01:01:08;11.30;;;6.50;;
74044;SDS011;62389;51.412;5.436;2023-04-28T01:03:35;13.50;;;6.35;;
74044;SDS011;62389;51.412;5.436;2023-04-28T01:06:04;13.60;;;6.65;;
74044;SDS011;62389;51.412;5.436;2023-04-28T01:08:30;11.65;;;6.40;;
74044;SDS011;62389;51.412;5.436;2023-04-28T01:10:56;14.35;;;7.93;;
74044;SDS011;62389;51.412;5.436;2023-04-28T01:13:22;12.45;;;7.07;;
74044;SDS011;62389;51.412;5.436;2023-04-28T01:15:47;13.98;;;6.43;;
74044;SDS011;62389;51.412;5.436;2023-04-28T01:18:13;12.00;;;6.88;;
74044;SDS011;62389;51.412;5.436;2023-04-28T01:20:40;11.73;;;6.72;;
74044;SDS011;62389;51.412;5.436;2023-04-28T01:23:10;12.63;;;6.63;;
74044;SDS011;62389;51.412;5.436;2023-04-28T01:25:36;10.93;;;6.57;;
74044;SDS011;62389;51.412;5.436;2023-04-28T01:28:01;15.80;;;7.47;;
74044;SDS011;62389;51.412;5.436;2023-04-28T01:30:27;14.23;;;6.20;;
74044;SDS011;62389;51.412;5.436;2023-04-28T01:32:52;10.65;;;6.47;;
74044;SDS011;62389;51.412;5.436;2023-04-28T01:35:17;15.25;;;7.25;;
74044;SDS011;62389;51.412;5.436;2023-04-28T01:37:43;13.07;;;6.10;;
74044;SDS011;62389;51.412;5.436;2023-04-28T01:40:08;13.00;;;6.95;;
74044;SDS011;62389;51.412;5.436;2023-04-28T01:42:34;11.82;;;6.57;;
74044;SDS011;62389;51.412;5.436;2023-04-28T01:44:59;13.10;;;7.20;;
74044;SDS011;62389;51.412;5.436;2023-04-28T01:47:25;11.23;;;6.28;;
74044;SDS011;62389;51.412;5.436;2023-04-28T01:49:50;12.27;;;6.70;;
74044;SDS011;62389;51.412;5.436;2023-04-28T01:52:16;13.32;;;7.38;;
74044;SDS011;62389;51.412;5.436;2023-04-28T01:54:43;13.93;;;7.18;;
74044;SDS011;62389;51.412;5.436;2023-04-28T01:57:09;12.63;;;6.70;;
74044;SDS011;62389;51.412;5.436;2023-04-28T01:59:34;13.10;;;6.88;;
74044;SDS011;62389;51.412;5.436;2023-04-28T02:01:59;14.73;;;7.38;;
74044;SDS011;62389;51.412;5.436;2023-04-28T02:04:25;13.65;;;6.72;;
74044;SDS011;62389;51.412;5.436;2023-04-28T02:06:50;14.75;;;8.88;;
74044;SDS011;62389;51.412;5.436;2023-04-28T02:09:16;15.35;;;7.07;;
74044;SDS011;62389;51.412;5.436;2023-04-28T02:11:41;15.77;;;7.43;;
74044;SDS011;62389;51.412;5.436;2023-04-28T02:14:06;14.50;;;7.63;;
74044;SDS011;62389;51.412;5.436;2023-04-28T02:16:32;13.93;;;8.27;;
74044;SDS011;62389;51.412;5.436;2023-04-28T02:18:57;14.85;;;7.82;;
74044;SDS011;62389;51.412;5.436;2023-04-28T02:21:23;13.98;;;7.18;;
74044;SDS011;62389;51.412;5.436;2023-04-28T02:23:48;14.10;;;7.82;;
74044;SDS011;62389;51.412;5.436;2023-04-28T02:26:14;14.05;;;7.15;;
74044;SDS011;62389;51.412;5.436;2023-04-28T02:28:39;16.45;;;7.47;;
74044;SDS011;62389;51.412;5.436;2023-04-28T02:31:09;15.68;;;7.45;;
74044;SDS011;62389;51.412;5.436;2023-04-28T02:33:36;14.27;;;7.22;;
74044;SDS011;62389;51.412;5.436;2023-04-28T02:36:02;14.07;;;7.25;;
74044;SDS011;62389;51.412;5.436;2023-04-28T02:38:28;14.57;;;7.40;;
74044;SDS011;62389;51.412;5.436;2023-04-28T02:41:04;18.65;;;7.40;;
74044;SDS011;62389;51.412;5.436;2023-04-28T02:43:31;15.63;;;7.65;;
74044;SDS011;62389;51.412;5.436;2023-04-28T02:45:57;16.25;;;7.72;;
74044;SDS011;62389;51.412;5.436;2023-04-28T02:48:23;15.23;;;7.32;;
74044;SDS011;62389;51.412;5.436;2023-04-28T02:50:49;13.52;;;7.35;;
74044;SDS011;62389;51.412;5.436;2023-04-28T02:53:15;13.20;;;6.85;;
74044;SDS011;62389;51.412;5.436;2023-04-28T02:55:40;18.20;;;9.25;;
74044;SDS011;62389;51.412;5.436;2023-04-28T02:58:06;15.80;;;8.55;;
74044;SDS011;62389;51.412;5.436;2023-04-28T03:00:31;15.65;;;8.57;;
74044;SDS011;62389;51.412;5.436;2023-04-28T03:02:57;17.63;;;8.75;;
74044;SDS011;62389;51.412;5.436;2023-04-28T03:05:22;15.95;;;8.13;;
74044;SDS011;62389;51.412;5.436;2023-04-28T03:07:47;18.08;;;8.40;;
74044;SDS011;62389;51.412;5.436;2023-04-28T03:10:13;15.57;;;8.15;;
74044;SDS011;62389;51.412;5.436;2023-04-28T03:12:38;15.25;;;7.88;;
74044;SDS011;62389;51.412;5.436;2023-04-28T03:15:04;14.38;;;8.18;;
74044;SDS011;62389;51.412;5.436;2023-04-28T03:17:32;14.25;;;8.38;;
74044;SDS011;62389;51.412;5.436;2023-04-28T03:19:58;15.77;;;8.27;;
74044;SDS011;62389;51.412;5.436;2023-04-28T03:22:23;18.05;;;8.63;;
74044;SDS011;62389;51.412;5.436;2023-04-28T03:24:48;17.33;;;8.95;;
74044;SDS011;62389;51.412;5.436;2023-04-28T03:27:13;14.77;;;7.60;;
74044;SDS011;62389;51.412;5.436;2023-04-28T03:29:39;19.05;;;8.07;;
74044;SDS011;62389;51.412;5.436;2023-04-28T03:32:04;16.92;;;8.40;;
74044;SDS011;62389;51.412;5.436;2023-04-28T03:34:30;14.00;;;8.23;;
74044;SDS011;62389;51.412;5.436;2023-04-28T03:36:56;14.57;;;7.80;;
74044;SDS011;62389;51.412;5.436;2023-04-28T03:39:21;16.98;;;8.68;;
74044;SDS011;62389;51.412;5.436;2023-04-28T03:41:46;14.95;;;8.35;;
74044;SDS011;62389;51.412;5.436;2023-04-28T03:44:12;17.13;;;8.20;;
74044;SDS011;62389;51.412;5.436;2023-04-28T03:46:37;14.75;;;8.27;;
74044;SDS011;62389;51.412;5.436;2023-04-28T03:51:30;14.80;;;8.05;;
74044;SDS011;62389;51.412;5.436;2023-04-28T03:53:57;15.57;;;7.97;;
74044;SDS011;62389;51.412;5.436;2023-04-28T03:56:22;17.15;;;8.65;;
74044;SDS011;62389;51.412;5.436;2023-04-28T03:58:48;14.30;;;8.35;;
74044;SDS011;62389;51.412;5.436;2023-04-28T04:01:13;15.38;;;9.10;;
74044;SDS011;62389;51.412;5.436;2023-04-28T04:03:39;16.30;;;8.85;;
74044;SDS011;62389;51.412;5.436;2023-04-28T04:06:04;17.30;;;9.57;;
74044;SDS011;62389;51.412;5.436;2023-04-28T04:08:30;14.73;;;8.70;;
74044;SDS011;62389;51.412;5.436;2023-04-28T04:10:57;17.90;;;9.60;;
74044;SDS011;62389;51.412;5.436;2023-04-28T04:13:22;21.30;;;9.10;;
74044;SDS011;62389;51.412;5.436;2023-04-28T04:15:48;17.90;;;8.70;;
74044;SDS011;62389;51.412;5.436;2023-04-28T04:18:14;15.00;;;8.75;;
74044;SDS011;62389;51.412;5.436;2023-04-28T04:20:40;17.20;;;9.38;;
74044;SDS011;62389;51.412;5.436;2023-04-28T04:23:05;18.92;;;10.13;;
74044;SDS011;62389;51.412;5.436;2023-04-28T04:25:30;17.25;;;8.90;;
74044;SDS011;62389;51.412;5.436;2023-04-28T04:27:56;16.70;;;9.63;;
74044;SDS011;62389;51.412;5.436;2023-04-28T04:30:22;17.45;;;8.80;;
74044;SDS011;62389;51.412;5.436;2023-04-28T04:32:47;18.48;;;9.93;;
74044;SDS011;62389;51.412;5.436;2023-04-28T04:35:13;15.60;;;9.02;;
74044;SDS011;62389;51.412;5.436;2023-04-28T04:37:38;15.30;;;9.13;;
74044;SDS011;62389;51.412;5.436;2023-04-28T04:40:04;18.95;;;9.15;;
74044;SDS011;62389;51.412;5.436;2023-04-28T04:42:30;15.73;;;9.02;;
74044;SDS011;62389;51.412;5.436;2023-04-28T04:44:55;18.77;;;10.02;;
74044;SDS011;62389;51.412;5.436;2023-04-28T04:47:21;16.15;;;9.20;;
74044;SDS011;62389;51.412;5.436;2023-04-28T04:49:47;14.93;;;8.98;;
74044;SDS011;62389;51.412;5.436;2023-04-28T04:52:14;20.88;;;9.75;;
74044;SDS011;62389;51.412;5.436;2023-04-28T04:54:39;17.17;;;9.43;;
74044;SDS011;62389;51.412;5.436;2023-04-28T04:57:05;20.42;;;9.68;;
74044;SDS011;62389;51.412;5.436;2023-04-28T04:59:31;18.05;;;8.70;;
74044;SDS011;62389;51.412;5.436;2023-04-28T05:01:56;16.58;;;9.20;;
74044;SDS011;62389;51.412;5.436;2023-04-28T05:04:22;17.90;;;10.05;;
74044;SDS011;62389;51.412;5.436;2023-04-28T05:06:47;18.55;;;9.60;;
74044;SDS011;62389;51.412;5.436;2023-04-28T05:09:12;18.27;;;8.93;;
74044;SDS011;62389;51.412;5.436;2023-04-28T05:11:38;18.65;;;10.25;;
74044;SDS011;62389;51.412;5.436;2023-04-28T05:14:03;19.38;;;10.25;;
74044;SDS011;62389;51.412;5.436;2023-04-28T05:16:28;20.27;;;9.35;;
74044;SDS011;62389;51.412;5.436;2023-04-28T05:18:54;16.25;;;9.43;;
74044;SDS011;62389;51.412;5.436;2023-04-28T05:21:20;15.85;;;9.48;;
74044;SDS011;62389;51.412;5.436;2023-04-28T05:23:45;16.85;;;9.75;;
74044;SDS011;62389;51.412;5.436;2023-04-28T05:26:10;16.33;;;9.52;;
74044;SDS011;62389;51.412;5.436;2023-04-28T05:28:36;15.77;;;9.57;;
74044;SDS011;62389;51.412;5.436;2023-04-28T05:31:01;19.15;;;10.48;;
74044;SDS011;62389;51.412;5.436;2023-04-28T05:33:27;18.45;;;9.85;;
74044;SDS011;62389;51.412;5.436;2023-04-28T05:35:52;19.38;;;10.07;;
74044;SDS011;62389;51.412;5.436;2023-04-28T05:38:17;18.88;;;10.07;;
74044;SDS011;62389;51.412;5.436;2023-04-28T05:40:43;17.98;;;10.73;;
74044;SDS011;62389;51.412;5.436;2023-04-28T05:43:08;16.95;;;10.00;;
74044;SDS011;62389;51.412;5.436;2023-04-28T05:45:33;17.38;;;9.30;;
74044;SDS011;62389;51.412;5.436;2023-04-28T05:47:59;17.83;;;9.95;;
74044;SDS011;62389;51.412;5.436;2023-04-28T05:50:24;20.17;;;10.63;;
74044;SDS011;62389;51.412;5.436;2023-04-28T05:52:50;18.40;;;10.38;;
74044;SDS011;62389;51.412;5.436;2023-04-28T05:55:15;21.00;;;10.68;;
74044;SDS011;62389;51.412;5.436;2023-04-28T05:57:41;16.25;;;8.93;;
74044;SDS011;62389;51.412;5.436;2023-04-28T06:00:06;17.50;;;9.27;;
74044;SDS011;62389;51.412;5.436;2023-04-28T06:02:32;17.50;;;9.70;;
74044;SDS011;62389;51.412;5.436;2023-04-28T06:04:57;15.07;;;8.80;;
74044;SDS011;62389;51.412;5.436;2023-04-28T06:07:23;19.83;;;9.13;;
74044;SDS011;62389;51.412;5.436;2023-04-28T06:09:48;15.15;;;9.18;;
74044;SDS011;62389;51.412;5.436;2023-04-28T06:12:13;17.48;;;11.65;;
74044;SDS011;62389;51.412;5.436;2023-04-28T06:14:39;14.65;;;9.23;;
74044;SDS011;62389;51.412;5.436;2023-04-28T06:17:04;18.08;;;9.38;;
74044;SDS011;62389;51.412;5.436;2023-04-28T06:19:30;19.98;;;9.55;;
74044;SDS011;62389;51.412;5.436;2023-04-28T06:21:55;16.88;;;9.57;;
74044;SDS011;62389;51.412;5.436;2023-04-28T06:24:21;21.17;;;9.38;;
74044;SDS011;62389;51.412;5.436;2023-04-28T06:26:46;17.20;;;9.40;;
74044;SDS011;62389;51.412;5.436;2023-04-28T06:29:11;21.80;;;10.18;;
74044;SDS011;62389;51.412;5.436;2023-04-28T06:31:37;15.10;;;9.25;;
74044;SDS011;62389;51.412;5.436;2023-04-28T06:34:02;15.52;;;8.68;;
74044;SDS011;62389;51.412;5.436;2023-04-28T06:36:27;16.55;;;9.35;;
74044;SDS011;62389;51.412;5.436;2023-04-28T06:38:53;17.52;;;10.77;;
74044;SDS011;62389;51.412;5.436;2023-04-28T06:41:18;16.35;;;9.25;;
74044;SDS011;62389;51.412;5.436;2023-04-28T06:43:44;16.33;;;9.00;;
74044;SDS011;62389;51.412;5.436;2023-04-28T06:46:09;16.17;;;9.93;;
74044;SDS011;62389;51.412;5.436;2023-04-28T06:48:35;19.88;;;10.50;;
74044;SDS011;62389;51.412;5.436;2023-04-28T06:51:01;20.02;;;10.23;;
74044;SDS011;62389;51.412;5.436;2023-04-28T06:53:27;17.05;;;10.70;;
74044;SDS011;62389;51.412;5.436;2023-04-28T06:55:52;18.40;;;10.35;;
74044;SDS011;62389;51.412;5.436;2023-04-28T06:58:18;16.48;;;10.10;;
74044;SDS011;62389;51.412;5.436;2023-04-28T07:00:44;18.58;;;10.18;;
74044;SDS011;62389;51.412;5.436;2023-04-28T07:03:10;18.92;;;11.50;;
74044;SDS011;62389;51.412;5.436;2023-04-28T07:05:35;18.58;;;10.77;;
74044;SDS011;62389;51.412;5.436;2023-04-28T07:08:00;20.50;;;11.43;;
74044;SDS011;62389;51.412;5.436;2023-04-28T07:10:26;20.88;;;10.70;;
74044;SDS011;62389;51.412;5.436;2023-04-28T07:12:51;20.02;;;10.27;;
74044;SDS011;62389;51.412;5.436;2023-04-28T07:15:17;18.17;;;11.15;;
74044;SDS011;62389;51.412;5.436;2023-04-28T07:17:42;20.73;;;10.63;;
74044;SDS011;62389;51.412;5.436;2023-04-28T07:20:08;20.20;;;11.30;;
74044;SDS011;62389;51.412;5.436;2023-04-28T07:22:33;20.80;;;11.35;;
74044;SDS011;62389;51.412;5.436;2023-04-28T07:24:58;20.60;;;11.35;;
74044;SDS011;62389;51.412;5.436;2023-04-28T07:27:24;20.83;;;10.35;;
74044;SDS011;62389;51.412;5.436;2023-04-28T07:29:49;16.98;;;10.65;;
74044;SDS011;62389;51.412;5.436;2023-04-28T07:32:15;20.35;;;12.30;;
74044;SDS011;62389;51.412;5.436;2023-04-28T07:34:40;16.38;;;10.38;;
74044;SDS011;62389;51.412;5.436;2023-04-28T07:37:06;19.00;;;11.10;;
74044;SDS011;62389;51.412;5.436;2023-04-28T07:39:32;17.35;;;10.63;;
74044;SDS011;62389;51.412;5.436;2023-04-28T07:41:58;20.58;;;11.57;;
74044;SDS011;62389;51.412;5.436;2023-04-28T07:44:25;18.17;;;10.15;;
74044;SDS011;62389;51.412;5.436;2023-04-28T07:46:50;20.98;;;13.27;;
74044;SDS011;62389;51.412;5.436;2023-04-28T07:49:16;19.92;;;13.30;;
74044;SDS011;62389;51.412;5.436;2023-04-28T07:51:41;21.15;;;11.25;;
74044;SDS011;62389;51.412;5.436;2023-04-28T07:54:07;22.33;;;12.85;;
74044;SDS011;62389;51.412;5.436;2023-04-28T07:56:32;21.10;;;12.10;;
74044;SDS011;62389;51.412;5.436;2023-04-28T07:58:58;21.02;;;11.40;;
74044;SDS011;62389;51.412;5.436;2023-04-28T08:01:23;21.98;;;12.27;;
74044;SDS011;62389;51.412;5.436;2023-04-28T08:03:49;20.60;;;12.13;;
74044;SDS011;62389;51.412;5.436;2023-04-28T08:06:14;23.00;;;11.88;;
74044;SDS011;62389;51.412;5.436;2023-04-28T08:08:40;22.77;;;12.20;;
74044;SDS011;62389;51.412;5.436;2023-04-28T08:11:06;21.73;;;12.52;;
74044;SDS011;62389;51.412;5.436;2023-04-28T08:13:32;25.35;;;12.68;;
74044;SDS011;62389;51.412;5.436;2023-04-28T08:15:58;24.75;;;13.68;;
74044;SDS011;62389;51.412;5.436;2023-04-28T08:18:26;23.05;;;12.80;;
74044;SDS011;62389;51.412;5.436;2023-04-28T08:20:52;21.85;;;12.43;;
74044;SDS011;62389;51.412;5.436;2023-04-28T08:23:18;21.13;;;11.75;;
74044;SDS011;62389;51.412;5.436;2023-04-28T08:25:44;19.92;;;12.25;;
74044;SDS011;62389;51.412;5.436;2023-04-28T08:28:11;22.48;;;12.68;;
74044;SDS011;62389;51.412;5.436;2023-04-28T08:30:36;21.15;;;12.90;;
74044;SDS011;62389;51.412;5.436;2023-04-28T08:33:03;24.05;;;13.23;;
74044;SDS011;62389;51.412;5.436;2023-04-28T08:35:29;24.02;;;14.52;;
74044;SDS011;62389;51.412;5.436;2023-04-28T08:37:54;23.40;;;12.50;;
74044;SDS011;62389;51.412;5.436;2023-04-28T08:40:20;24.20;;;13.98;;
74044;SDS011;62389;51.412;5.436;2023-04-28T08:42:45;22.88;;;12.30;;
74044;SDS011;62389;51.412;5.436;2023-04-28T08:45:14;23.92;;;13.77;;
74044;SDS011;62389;51.412;5.436;2023-04-28T08:47:41;24.95;;;13.13;;
74044;SDS011;62389;51.412;5.436;2023-04-28T08:50:10;23.75;;;14.60;;
74044;SDS011;62389;51.412;5.436;2023-04-28T08:52:40;22.55;;;13.48;;
74044;SDS011;62389;51.412;5.436;2023-04-28T08:55:10;20.63;;;12.43;;
74044;SDS011;62389;51.412;5.436;2023-04-28T08:57:43;21.35;;;11.23;;
74044;SDS011;62389;51.412;5.436;2023-04-28T09:00:10;20.85;;;12.95;;
74044;SDS011;62389;51.412;5.436;2023-04-28T09:02:36;20.83;;;12.85;;
74044;SDS011;62389;51.412;5.436;2023-04-28T09:05:06;29.27;;;13.95;;
74044;SDS011;62389;51.412;5.436;2023-04-28T09:07:34;25.38;;;14.07;;
74044;SDS011;62389;51.412;5.436;2023-04-28T09:10:20;27.67;;;13.05;;
74044;SDS011;62389;51.412;5.436;2023-04-28T09:12:47;22.50;;;12.10;;
74044;SDS011;62389;51.412;5.436;2023-04-28T09:15:31;25.05;;;12.63;;
74044;SDS011;62389;51.412;5.436;2023-04-28T09:17:57;22.02;;;12.38;;
74044;SDS011;62389;51.412;5.436;2023-04-28T09:20:23;23.55;;;12.95;;
74044;SDS011;62389;51.412;5.436;2023-04-28T09:22:51;25.88;;;13.05;;
74044;SDS011;62389;51.412;5.436;2023-04-28T09:25:17;23.63;;;13.55;;
74044;SDS011;62389;51.412;5.436;2023-04-28T09:27:45;26.05;;;13.98;;
74044;SDS011;62389;51.412;5.436;2023-04-28T09:30:11;25.75;;;14.70;;
74044;SDS011;62389;51.412;5.436;2023-04-28T09:32:36;25.52;;;13.07;;
74044;SDS011;62389;51.412;5.436;2023-04-28T09:35:02;24.42;;;13.35;;
74044;SDS011;62389;51.412;5.436;2023-04-28T09:37:29;23.15;;;12.90;;
74044;SDS011;62389;51.412;5.436;2023-04-28T09:39:55;20.95;;;12.23;;
74044;SDS011;62389;51.412;5.436;2023-04-28T09:45:01;21.00;;;12.13;;
74044;SDS011;62389;51.412;5.436;2023-04-28T09:47:29;25.52;;;13.30;;
74044;SDS011;62389;51.412;5.436;2023-04-28T09:50:00;21.13;;;12.45;;
74044;SDS011;62389;51.412;5.436;2023-04-28T09:52:27;21.73;;;12.55;;
74044;SDS011;62389;51.412;5.436;2023-04-28T09:54:54;22.40;;;12.20;;
74044;SDS011;62389;51.412;5.436;2023-04-28T09:57:21;22.67;;;11.73;;
74044;SDS011;62389;51.412;5.436;2023-04-28T09:59:48;22.25;;;12.95;;
74044;SDS011;62389;51.412;5.436;2023-04-28T10:02:14;22.85;;;13.07;;
74044;SDS011;62389;51.412;5.436;2023-04-28T10:04:44;26.13;;;13.27;;
74044;SDS011;62389;51.412;5.436;2023-04-28T10:07:11;18.92;;;12.63;;
74044;SDS011;62389;51.412;5.436;2023-04-28T10:09:44;24.52;;;11.80;;
74044;SDS011;62389;51.412;5.436;2023-04-28T10:12:21;22.58;;;12.70;;
74044;SDS011;62389;51.412;5.436;2023-04-28T10:14:48;19.80;;;12.43;;
74044;SDS011;62389;51.412;5.436;2023-04-28T10:19:44;19.05;;;11.93;;
74044;SDS011;62389;51.412;5.436;2023-04-28T10:27:32;21.15;;;11.90;;
74044;SDS011;62389;51.412;5.436;2023-04-28T10:30:10;20.08;;;11.55;;
74044;SDS011;62389;51.412;5.436;2023-04-28T10:32:36;26.02;;;11.73;;
74044;SDS011;62389;51.412;5.436;2023-04-28T10:43:00;17.67;;;10.00;;
74044;SDS011;62389;51.412;5.436;2023-04-28T10:58:50;18.17;;;9.57;;
74044;SDS011;62389;51.412;5.436;2023-04-28T11:04:08;15.25;;;9.35;;
74044;SDS011;62389;51.412;5.436;2023-04-28T11:11:36;13.98;;;8.80;;
74044;SDS011;62389;51.412;5.436;2023-04-28T11:16:59;13.15;;;8.40;;
74044;SDS011;62389;51.412;5.436;2023-04-28T11:19:36;13.13;;;8.77;;
74044;SDS011;62389;51.412;5.436;2023-04-28T11:22:21;14.45;;;8.95;;
74044;SDS011;62389;51.412;5.436;2023-04-28T11:24:57;11.70;;;8.10;;
74044;SDS011;62389;51.412;5.436;2023-04-28T11:27:24;12.95;;;7.78;;
74044;SDS011;62389;51.412;5.436;2023-04-28T11:29:51;13.02;;;7.65;;
74044;SDS011;62389;51.412;5.436;2023-04-28T11:32:24;12.85;;;7.93;;
74044;SDS011;62389;51.412;5.436;2023-04-28T11:34:51;12.00;;;7.93;;
74044;SDS011;62389;51.412;5.436;2023-04-28T11:37:16;11.27;;;7.47;;
74044;SDS011;62389;51.412;5.436;2023-04-28T11:39:42;10.82;;;7.05;;
74044;SDS011;62389;51.412;5.436;2023-04-28T11:42:10;10.38;;;7.20;;
74044;SDS011;62389;51.412;5.436;2023-04-28T11:44:35;10.55;;;6.78;;
74044;SDS011;62389;51.412;5.436;2023-04-28T11:47:02;8.82;;;6.43;;
74044;SDS011;62389;51.412;5.436;2023-04-28T11:52:06;9.50;;;5.70;;
74044;SDS011;62389;51.412;5.436;2023-04-28T11:54:33;7.88;;;5.20;;
74044;SDS011;62389;51.412;5.436;2023-04-28T11:56:59;7.20;;;5.05;;
74044;SDS011;62389;51.412;5.436;2023-04-28T11:59:26;10.27;;;5.47;;
74044;SDS011;62389;51.412;5.436;2023-04-28T12:01:54;7.32;;;4.70;;
74044;SDS011;62389;51.412;5.436;2023-04-28T12:07:17;8.40;;;6.35;;
74044;SDS011;62389;51.412;5.436;2023-04-28T12:12:12;9.02;;;6.47;;
74044;SDS011;62389;51.412;5.436;2023-04-28T12:14:58;12.15;;;7.95;;
74044;SDS011;62389;51.412;5.436;2023-04-28T12:17:35;13.45;;;8.65;;
74044;SDS011;62389;51.412;5.436;2023-04-28T12:20:07;11.02;;;7.15;;
74044;SDS011;62389;51.412;5.436;2023-04-28T12:22:47;11.48;;;7.57;;
74044;SDS011;62389;51.412;5.436;2023-04-28T12:25:15;12.68;;;7.60;;
74044;SDS011;62389;51.412;5.436;2023-04-28T12:27:57;11.57;;;7.50;;
74044;SDS011;62389;51.412;5.436;2023-04-28T12:30:26;10.07;;;6.82;;
74044;SDS011;62389;51.412;5.436;2023-04-28T12:32:52;9.25;;;6.75;;
74044;SDS011;62389;51.412;5.436;2023-04-28T12:35:23;11.52;;;7.82;;
74044;SDS011;62389;51.412;5.436;2023-04-28T12:37:50;9.63;;;6.43;;
74044;SDS011;62389;51.412;5.436;2023-04-28T12:40:16;14.38;;;8.50;;
74044;SDS011;62389;51.412;5.436;2023-04-28T12:42:42;10.63;;;7.00;;
74044;SDS011;62389;51.412;5.436;2023-04-28T12:45:07;12.30;;;7.15;;
74044;SDS011;62389;51.412;5.436;2023-04-28T12:47:33;9.38;;;7.03;;
74044;SDS011;62389;51.412;5.436;2023-04-28T12:49:59;10.27;;;6.50;;
74044;SDS011;62389;51.412;5.436;2023-04-28T12:52:24;7.47;;;5.85;;
74044;SDS011;62389;51.412;5.436;2023-04-28T12:54:50;9.80;;;6.53;;
74044;SDS011;62389;51.412;5.436;2023-04-28T12:57:15;9.05;;;5.60;;
74044;SDS011;62389;51.412;5.436;2023-04-28T12:59:42;9.15;;;6.63;;
74044;SDS011;62389;51.412;5.436;2023-04-28T13:02:08;11.55;;;6.38;;
74044;SDS011;62389;51.412;5.436;2023-04-28T13:04:33;8.43;;;6.25;;
74044;SDS011;62389;51.412;5.436;2023-04-28T13:06:59;8.00;;;5.53;;
74044;SDS011;62389;51.412;5.436;2023-04-28T13:09:25;7.40;;;4.80;;
74044;SDS011;62389;51.412;5.436;2023-04-28T13:11:51;6.85;;;4.80;;
74044;SDS011;62389;51.412;5.436;2023-04-28T13:14:20;9.10;;;5.53;;
74044;SDS011;62389;51.412;5.436;2023-04-28T13:16:45;12.95;;;7.55;;
74044;SDS011;62389;51.412;5.436;2023-04-28T13:19:11;16.83;;;8.90;;
74044;SDS011;62389;51.412;5.436;2023-04-28T13:21:41;15.07;;;9.60;;
74044;SDS011;62389;51.412;5.436;2023-04-28T13:24:07;15.68;;;9.95;;
74044;SDS011;62389;51.412;5.436;2023-04-28T13:26:34;18.42;;;11.13;;
74044;SDS011;62389;51.412;5.436;2023-04-28T13:29:00;18.23;;;11.52;;
74044;SDS011;62389;51.412;5.436;2023-04-28T13:31:26;18.52;;;10.82;;
74044;SDS011;62389;51.412;5.436;2023-04-28T13:33:53;16.65;;;11.07;;
74044;SDS011;62389;51.412;5.436;2023-04-28T13:36:18;17.38;;;11.32;;
74044;SDS011;62389;51.412;5.436;2023-04-28T13:38:44;15.23;;;8.75;;
74044;SDS011;62389;51.412;5.436;2023-04-28T13:41:12;14.52;;;8.48;;
74044;SDS011;62389;51.412;5.436;2023-04-28T13:43:41;13.07;;;7.53;;
74044;SDS011;62389;51.412;5.436;2023-04-28T13:46:07;12.75;;;7.65;;
74044;SDS011;62389;51.412;5.436;2023-04-28T13:48:36;11.10;;;7.15;;
74044;SDS011;62389;51.412;5.436;2023-04-28T13:51:02;12.93;;;7.32;;
74044;SDS011;62389;51.412;5.436;2023-04-28T13:53:29;15.70;;;8.18;;
74044;SDS011;62389;51.412;5.436;2023-04-28T13:55:55;11.95;;;7.28;;
74044;SDS011;62389;51.412;5.436;2023-04-28T13:58:24;13.43;;;7.35;;
74044;SDS011;62389;51.412;5.436;2023-04-28T14:00:51;11.85;;;7.03;;
74044;SDS011;62389;51.412;5.436;2023-04-28T14:03:17;12.98;;;8.20;;
74044;SDS011;62389;51.412;5.436;2023-04-28T14:05:50;13.57;;;9.18;;
74044;SDS011;62389;51.412;5.436;2023-04-28T14:08:16;13.45;;;7.45;;
74044;SDS011;62389;51.412;5.436;2023-04-28T14:10:42;11.30;;;7.45;;
74044;SDS011;62389;51.412;5.436;2023-04-28T14:13:08;11.52;;;7.22;;
74044;SDS011;62389;51.412;5.436;2023-04-28T14:15:33;14.82;;;9.52;;
74044;SDS011;62389;51.412;5.436;2023-04-28T14:17:59;14.60;;;9.60;;
74044;SDS011;62389;51.412;5.436;2023-04-28T14:20:25;16.88;;;10.45;;
74044;SDS011;62389;51.412;5.436;2023-04-28T14:22:50;14.15;;;10.18;;
74044;SDS011;62389;51.412;5.436;2023-04-28T14:25:16;13.55;;;8.88;;
74044;SDS011;62389;51.412;5.436;2023-04-28T14:27:42;15.70;;;9.45;;
74044;SDS011;62389;51.412;5.436;2023-04-28T14:30:08;14.65;;;10.43;;
74044;SDS011;62389;51.412;5.436;2023-04-28T14:32:34;14.63;;;9.80;;
74044;SDS011;62389;51.412;5.436;2023-04-28T14:35:00;13.25;;;9.05;;
74044;SDS011;62389;51.412;5.436;2023-04-28T14:37:29;15.30;;;9.70;;
74044;SDS011;62389;51.412;5.436;2023-04-28T14:39:54;14.57;;;8.90;;
74044;SDS011;62389;51.412;5.436;2023-04-28T14:42:20;16.08;;;10.00;;
74044;SDS011;62389;51.412;5.436;2023-04-28T14:44:46;14.88;;;9.35;;
74044;SDS011;62389;51.412;5.436;2023-04-28T14:47:12;14.07;;;9.27;;
74044;SDS011;62389;51.412;5.436;2023-04-28T14:49:37;13.38;;;9.27;;
74044;SDS011;62389;51.412;5.436;2023-04-28T14:52:03;15.25;;;9.30;;
74044;SDS011;62389;51.412;5.436;2023-04-28T14:54:29;16.88;;;10.60;;
74044;SDS011;62389;51.412;5.436;2023-04-28T14:56:56;14.23;;;9.52;;
74044;SDS011;62389;51.412;5.436;2023-04-28T14:59:22;18.05;;;11.70;;
74044;SDS011;62389;51.412;5.436;2023-04-28T15:01:47;20.58;;;12.68;;
74044;SDS011;62389;51.412;5.436;2023-04-28T15:04:15;21.27;;;12.80;;
74044;SDS011;62389;51.412;5.436;2023-04-28T15:06:40;20.15;;;12.60;;
74044;SDS011;62389;51.412;5.436;2023-04-28T15:09:06;23.80;;;14.38;;
74044;SDS011;62389;51.412;5.436;2023-04-28T15:11:31;22.65;;;13.05;;
74044;SDS011;62389;51.412;5.436;2023-04-28T15:13:57;21.42;;;12.55;;
74044;SDS011;62389;51.412;5.436;2023-04-28T15:16:22;20.88;;;12.52;;
74044;SDS011;62389;51.412;5.436;2023-04-28T15:18:47;22.55;;;12.98;;